Time;durP1;ratioP1;P1;durP2;ratioP2;P2;SDS_P1;SDS_P2;PMS_P1;PMS_P2;Temp;Humidity;BMP_temperature;BMP_pressure;BME280_temperature;BME280_humidity;BME280_pressure;Samples;Min_cycle;Max_cycle;Signal;HPM_P1;HPM_P2
2022/08/15 00:01:47;;;;;;;5.47;4.73;;;;;;;;;;4929752;29;20208;-72
2022/08/15 00:04:12;;;;;;;4.60;4.20;;;;;;;;;;4924107;28;20185;-73
2022/08/15 00:06:40;;;;;;;4.77;4.37;;;;;;;;;;4941952;29;20183;-72
2022/08/15 00:09:09;;;;;;;4.67;4.27;;;;;;;;;;4921174;29;20194;-72
2022/08/15 00:11:37;;;;;;;4.60;4.20;;;;;;;;;;4933450;28;20242;-71
2022/08/15 00:14:05;;;;;;;4.60;4.30;;;;;;;;;;4940396;28;20184;-72
2022/08/15 00:16:33;;;;;;;4.67;4.27;;;;;;;;;;4946648;28;20267;-73
2022/08/15 00:18:59;;;;;;;4.50;4.00;;;;;;;;;;4927939;29;20208;-72
2022/08/15 00:21:25;;;;;;;4.87;4.40;;;;;;;;;;4936370;29;20179;-73
2022/08/15 00:23:51;;;;;;;5.87;4.90;;;;;;;;;;4939787;29;20216;-72
2022/08/15 00:26:16;;;;;;;5.40;5.00;;;;;;;;;;4938996;28;20229;-72
2022/08/15 00:28:42;;;;;;;5.83;5.23;;;;;;;;;;4932245;29;20184;-72
2022/08/15 00:31:09;;;;;;;7.70;4.67;;;;;;;;;;4929660;28;20191;-72
2022/08/15 00:33:35;;;;;;;6.47;5.07;;;;;;;;;;4943748;28;20207;-72
2022/08/15 00:36:00;;;;;;;6.30;4.97;;;;;;;;;;4922061;29;20501;-72
2022/08/15 00:38:26;;;;;;;5.37;4.80;;;;;;;;;;4946959;28;20210;-72
2022/08/15 00:43:40;;;;;;;4.90;4.37;;;;;;;;;;4939021;28;20228;-72
2022/08/15 00:46:07;;;;;;;5.17;4.73;;;;;;;;;;4940820;29;20312;-72
2022/08/15 00:48:41;;;;;;;5.20;4.70;;;;;;;;;;4935773;28;20229;-71
2022/08/15 00:51:09;;;;;;;5.13;4.63;;;;;;;;;;4926948;29;20321;-72
2022/08/15 00:53:35;;;;;;;7.63;4.90;;;;;;;;;;4926897;29;20227;-71
2022/08/15 00:56:01;;;;;;;4.90;4.53;;;;;;;;;;4925440;29;20199;-72
2022/08/15 00:58:26;;;;;;;5.87;4.73;;;;;;;;;;4924449;28;20197;-71
2022/08/15 01:00:52;;;;;;;5.40;5.00;;;;;;;;;;4943626;28;20189;-72
2022/08/15 01:03:21;;;;;;;5.60;5.03;;;;;;;;;;4940932;28;20180;-71
2022/08/15 01:05:47;;;;;;;5.03;4.63;;;;;;;;;;4948083;28;20254;-71
2022/08/15 01:08:16;;;;;;;6.67;4.63;;;;;;;;;;4951744;28;20188;-71
2022/08/15 01:10:41;;;;;;;5.20;4.70;;;;;;;;;;4943426;28;20187;-72
2022/08/15 01:13:07;;;;;;;6.43;5.00;;;;;;;;;;4935636;28;20276;-71
2022/08/15 01:15:32;;;;;;;5.30;4.80;;;;;;;;;;4924839;29;20279;-71
2022/08/15 01:17:57;;;;;;;5.27;4.80;;;;;;;;;;4924919;29;20322;-71
2022/08/15 01:20:27;;;;;;;6.87;5.10;;;;;;;;;;4946111;28;20187;-72
2022/08/15 01:22:53;;;;;;;7.17;5.10;;;;;;;;;;4940875;28;20238;-72
2022/08/15 01:25:31;;;;;;;5.30;4.60;;;;;;;;;;4922819;28;20211;-72
2022/08/15 01:28:11;;;;;;;5.93;4.30;;;;;;;;;;4930852;29;20298;-71
2022/08/15 01:30:46;;;;;;;7.03;4.47;;;;;;;;;;4921428;29;20190;-72
2022/08/15 01:33:11;;;;;;;6.27;4.43;;;;;;;;;;4944279;28;20248;-71
2022/08/15 01:35:37;;;;;;;6.87;5.07;;;;;;;;;;4921146;29;20179;-71
2022/08/15 01:38:03;;;;;;;4.97;4.43;;;;;;;;;;4919782;29;20205;-72
2022/08/15 01:40:52;;;;;;;5.83;5.00;;;;;;;;;;4940707;28;20236;-72
2022/08/15 01:43:21;;;;;;;5.73;4.43;;;;;;;;;;4947229;28;20250;-71
2022/08/15 01:45:46;;;;;;;5.70;4.63;;;;;;;;;;4935415;28;20193;-71
2022/08/15 01:48:22;;;;;;;4.80;3.97;;;;;;;;;;4932916;29;20183;-72
2022/08/15 01:50:50;;;;;;;5.97;4.50;;;;;;;;;;4916292;29;20189;-72
2022/08/15 01:53:30;;;;;;;6.27;4.80;;;;;;;;;;4926308;28;20187;-72
2022/08/15 01:56:19;;;;;;;5.10;4.60;;;;;;;;;;4926539;29;20197;-71
2022/08/15 01:58:45;;;;;;;4.90;4.37;;;;;;;;;;4942257;28;20203;-72
2022/08/15 02:01:12;;;;;;;5.20;4.30;;;;;;;;;;4931001;28;20230;-71
2022/08/15 02:03:39;;;;;;;4.57;4.17;;;;;;;;;;4929737;29;20330;-71
2022/08/15 02:06:09;;;;;;;4.80;4.40;;;;;;;;;;4921709;29;20188;-71
2022/08/15 02:08:35;;;;;;;4.53;4.20;;;;;;;;;;4943425;28;20213;-71
2022/08/15 02:11:01;;;;;;;5.13;4.30;;;;;;;;;;4926282;29;20284;-71
2022/08/15 02:13:26;;;;;;;5.77;4.73;;;;;;;;;;4932045;28;20408;-71
2022/08/15 02:15:52;;;;;;;5.10;4.00;;;;;;;;;;4931620;29;20183;-71
2022/08/15 02:18:17;;;;;;;4.80;4.40;;;;;;;;;;4946758;28;20214;-72
2022/08/15 02:20:43;;;;;;;6.40;4.30;;;;;;;;;;4922965;28;20328;-72
2022/08/15 02:23:08;;;;;;;6.03;4.37;;;;;;;;;;4936015;28;20186;-71
2022/08/15 02:25:35;;;;;;;4.53;4.10;;;;;;;;;;4925594;29;20279;-72
2022/08/15 02:28:01;;;;;;;5.80;3.83;;;;;;;;;;4933434;29;20195;-72
2022/08/15 02:30:27;;;;;;;4.83;4.33;;;;;;;;;;4944771;28;20197;-72
2022/08/15 02:32:52;;;;;;;5.00;3.47;;;;;;;;;;4932307;28;20175;-71
2022/08/15 02:35:18;;;;;;;4.90;3.57;;;;;;;;;;4923873;29;20212;-71
2022/08/15 02:37:44;;;;;;;4.30;3.90;;;;;;;;;;4938686;28;20232;-71
2022/08/15 02:40:11;;;;;;;4.77;3.60;;;;;;;;;;4929013;29;20231;-72
2022/08/15 02:42:36;;;;;;;7.10;4.00;;;;;;;;;;4926720;29;20180;-72
2022/08/15 02:45:03;;;;;;;4.27;3.70;;;;;;;;;;4945586;28;20180;-71
2022/08/15 02:47:32;;;;;;;4.10;3.70;;;;;;;;;;4945497;28;20183;-72
2022/08/15 02:50:00;;;;;;;3.43;3.13;;;;;;;;;;4941473;29;20185;-72
2022/08/15 02:52:25;;;;;;;3.77;3.47;;;;;;;;;;4932219;29;20183;-72
2022/08/15 02:54:50;;;;;;;4.10;3.70;;;;;;;;;;4930541;29;20188;-72
2022/08/15 02:57:16;;;;;;;4.10;3.80;;;;;;;;;;4928457;28;20200;-71
2022/08/15 02:59:41;;;;;;;4.03;3.63;;;;;;;;;;4924953;29;20210;-72
2022/08/15 03:02:07;;;;;;;4.47;3.53;;;;;;;;;;4928712;29;20188;-72
2022/08/15 03:04:34;;;;;;;4.70;3.90;;;;;;;;;;4942385;29;20184;-72
2022/08/15 03:06:59;;;;;;;3.90;3.53;;;;;;;;;;4940653;29;20181;-72
2022/08/15 03:09:25;;;;;;;5.13;3.90;;;;;;;;;;4932293;28;20198;-72
2022/08/15 03:11:50;;;;;;;4.40;3.73;;;;;;;;;;4923584;29;20279;-72
2022/08/15 03:14:17;;;;;;;6.57;4.57;;;;;;;;;;4928221;29;20191;-73
2022/08/15 03:16:44;;;;;;;6.00;3.47;;;;;;;;;;4943890;29;20207;-72
2022/08/15 03:19:16;;;;;;;5.00;3.60;;;;;;;;;;4922981;28;20219;-72
2022/08/15 03:21:42;;;;;;;6.67;3.63;;;;;;;;;;4947291;28;20179;-73
2022/08/15 03:24:08;;;;;;;3.90;3.60;;;;;;;;;;4941011;28;20308;-72
2022/08/15 03:26:34;;;;;;;3.90;3.57;;;;;;;;;;4944277;28;20387;-72
2022/08/15 03:28:59;;;;;;;5.30;3.83;;;;;;;;;;4930208;29;20183;-72
2022/08/15 03:31:25;;;;;;;4.10;3.70;;;;;;;;;;4924646;29;20250;-72
2022/08/15 03:33:50;;;;;;;4.30;3.87;;;;;;;;;;4942780;28;20222;-72
2022/08/15 03:36:17;;;;;;;5.13;3.57;;;;;;;;;;4921276;28;20184;-72
2022/08/15 03:38:45;;;;;;;3.83;3.47;;;;;;;;;;4953163;28;20206;-73
2022/08/15 03:41:10;;;;;;;4.90;3.57;;;;;;;;;;4926581;29;20243;-72
2022/08/15 03:43:37;;;;;;;5.47;3.30;;;;;;;;;;4948231;29;20182;-72
2022/08/15 03:46:07;;;;;;;3.67;3.33;;;;;;;;;;4930978;29;20187;-72
2022/08/15 03:48:35;;;;;;;4.20;3.50;;;;;;;;;;4951593;28;20174;-72
2022/08/15 03:51:01;;;;;;;3.73;3.30;;;;;;;;;;4940072;28;20178;-72
2022/08/15 03:53:28;;;;;;;3.47;3.13;;;;;;;;;;4927627;29;20183;-72
2022/08/15 03:55:53;;;;;;;4.00;3.70;;;;;;;;;;4926882;29;20231;-72
2022/08/15 03:58:18;;;;;;;4.07;3.30;;;;;;;;;;4936507;29;20216;-71
2022/08/15 04:00:45;;;;;;;3.00;2.80;;;;;;;;;;4927845;29;20183;-72
2022/08/15 04:03:10;;;;;;;3.43;2.83;;;;;;;;;;4945531;29;20188;-72
2022/08/15 04:05:36;;;;;;;4.90;2.83;;;;;;;;;;4937264;29;20174;-72
2022/08/15 04:08:05;;;;;;;3.10;2.90;;;;;;;;;;4929476;29;20187;-71
2022/08/15 04:10:31;;;;;;;3.37;2.73;;;;;;;;;;4924931;29;20231;-71
2022/08/15 04:12:57;;;;;;;4.80;3.63;;;;;;;;;;4946994;28;20174;-72
2022/08/15 04:15:22;;;;;;;2.87;2.67;;;;;;;;;;4943672;28;20246;-71
2022/08/15 04:17:48;;;;;;;4.30;2.83;;;;;;;;;;4927430;29;20228;-71
2022/08/15 04:20:13;;;;;;;3.60;2.57;;;;;;;;;;4933271;29;20192;-72
2022/08/15 04:22:41;;;;;;;2.83;2.63;;;;;;;;;;4925056;29;20221;-72
2022/08/15 04:25:06;;;;;;;3.57;3.00;;;;;;;;;;4938322;28;20197;-73
2022/08/15 04:27:31;;;;;;;3.10;2.80;;;;;;;;;;4944376;28;20176;-71
2022/08/15 04:29:57;;;;;;;3.00;2.70;;;;;;;;;;4931302;28;20747;-73
2022/08/15 04:32:24;;;;;;;3.20;2.90;;;;;;;;;;4947399;29;20182;-71
2022/08/15 04:34:49;;;;;;;2.90;2.60;;;;;;;;;;4922506;29;20203;-72
2022/08/15 04:37:15;;;;;;;3.40;2.40;;;;;;;;;;4923737;29;20203;-72
2022/08/15 04:39:40;;;;;;;2.93;2.50;;;;;;;;;;4941062;29;20243;-72
2022/08/15 04:42:06;;;;;;;2.80;2.60;;;;;;;;;;4944509;28;20179;-72
2022/08/15 04:44:32;;;;;;;3.73;2.93;;;;;;;;;;4943405;29;20209;-72
2022/08/15 04:46:57;;;;;;;3.00;2.73;;;;;;;;;;4919418;29;20177;-72
2022/08/15 04:49:22;;;;;;;3.43;2.37;;;;;;;;;;4960195;28;20226;-76
2022/08/15 04:51:47;;;;;;;3.33;2.80;;;;;;;;;;4920816;29;20196;-73
2022/08/15 04:54:13;;;;;;;3.20;2.77;;;;;;;;;;4937799;28;20204;-72
2022/08/15 04:56:38;;;;;;;3.40;2.80;;;;;;;;;;4925306;29;20244;-72
2022/08/15 04:59:04;;;;;;;3.13;2.60;;;;;;;;;;4924617;29;20209;-72
2022/08/15 05:01:29;;;;;;;3.07;2.80;;;;;;;;;;4923884;28;20260;-71
2022/08/15 05:03:55;;;;;;;3.00;2.47;;;;;;;;;;4945197;28;20178;-71
2022/08/15 05:06:20;;;;;;;4.10;3.43;;;;;;;;;;4927163;28;20181;-73
2022/08/15 05:08:45;;;;;;;4.03;3.63;;;;;;;;;;4930076;29;20257;-72
2022/08/15 05:11:12;;;;;;;3.17;2.67;;;;;;;;;;4922825;28;20231;-71
2022/08/15 05:13:38;;;;;;;4.27;3.13;;;;;;;;;;4944788;28;20196;-72
2022/08/15 05:16:07;;;;;;;3.17;2.87;;;;;;;;;;4940930;28;20180;-72
2022/08/15 05:18:33;;;;;;;3.53;3.20;;;;;;;;;;4942079;29;20197;-71
2022/08/15 05:20:59;;;;;;;3.90;3.10;;;;;;;;;;4939613;28;20185;-72
2022/08/15 05:23:24;;;;;;;3.83;2.53;;;;;;;;;;4938521;29;20221;-71
2022/08/15 05:25:51;;;;;;;2.90;2.70;;;;;;;;;;4944172;28;20185;-71
2022/08/15 05:28:17;;;;;;;2.90;2.50;;;;;;;;;;4930117;28;20194;-72
2022/08/15 05:30:42;;;;;;;3.33;2.90;;;;;;;;;;4952999;28;20192;-71
2022/08/15 05:33:11;;;;;;;4.33;2.53;;;;;;;;;;4924702;29;20193;-72
2022/08/15 05:35:41;;;;;;;3.73;2.63;;;;;;;;;;4929580;29;20179;-72
2022/08/15 05:38:09;;;;;;;3.00;2.70;;;;;;;;;;4933337;28;20204;-71
2022/08/15 05:40:53;;;;;;;4.07;2.87;;;;;;;;;;4950677;28;20238;-72
2022/08/15 05:43:30;;;;;;;3.03;2.83;;;;;;;;;;4931337;28;20418;-72
2022/08/15 05:46:14;;;;;;;4.00;2.87;;;;;;;;;;4939813;28;20206;-72
2022/08/15 05:48:39;;;;;;;3.07;2.50;;;;;;;;;;4927557;29;20271;-71
2022/08/15 05:51:25;;;;;;;3.33;2.83;;;;;;;;;;4923266;29;20235;-73
2022/08/15 05:54:09;;;;;;;3.30;3.00;;;;;;;;;;4938681;28;20370;-72
2022/08/15 05:56:34;;;;;;;6.20;3.00;;;;;;;;;;4944483;28;20220;-72
2022/08/15 05:59:02;;;;;;;3.57;2.90;;;;;;;;;;4929441;29;20221;-71
2022/08/15 06:01:29;;;;;;;3.00;2.70;;;;;;;;;;4936481;28;20178;-72
2022/08/15 06:03:58;;;;;;;3.53;2.97;;;;;;;;;;4946286;28;20183;-72
2022/08/15 06:06:26;;;;;;;3.43;3.13;;;;;;;;;;4934969;29;20189;-72
2022/08/15 06:08:53;;;;;;;3.00;2.70;;;;;;;;;;4926583;29;20209;-72
2022/08/15 06:11:26;;;;;;;2.80;2.60;;;;;;;;;;4931964;29;20191;-72
2022/08/15 06:13:55;;;;;;;3.03;2.70;;;;;;;;;;4943736;28;20396;-71
2022/08/15 06:16:26;;;;;;;3.13;2.60;;;;;;;;;;4946003;28;20196;-71
2022/08/15 06:18:55;;;;;;;4.30;4.00;;;;;;;;;;4945514;28;20234;-71
2022/08/15 06:21:26;;;;;;;5.97;4.27;;;;;;;;;;4951605;28;20282;-72
2022/08/15 06:24:05;;;;;;;3.50;3.20;;;;;;;;;;4945830;28;20190;-72
2022/08/15 06:26:36;;;;;;;3.07;2.77;;;;;;;;;;4946556;28;20182;-71
2022/08/15 06:29:14;;;;;;;4.13;2.83;;;;;;;;;;4928172;29;20182;-72
2022/08/15 06:31:42;;;;;;;3.03;2.70;;;;;;;;;;4928618;29;20325;-71
2022/08/15 06:34:19;;;;;;;5.07;2.83;;;;;;;;;;4928279;28;20201;-71
2022/08/15 06:36:52;;;;;;;2.63;2.10;;;;;;;;;;4931773;29;20178;-71
2022/08/15 06:39:28;;;;;;;2.47;2.23;;;;;;;;;;4955870;28;20252;-71
2022/08/15 06:41:58;;;;;;;2.53;2.27;;;;;;;;;;4932369;29;20204;-72
2022/08/15 06:44:24;;;;;;;3.70;2.57;;;;;;;;;;4929711;28;20208;-71
2022/08/15 06:46:50;;;;;;;3.33;2.20;;;;;;;;;;4939051;29;20186;-71
2022/08/15 06:49:19;;;;;;;3.60;2.57;;;;;;;;;;4931635;29;20237;-71
2022/08/15 06:51:44;;;;;;;2.83;2.50;;;;;;;;;;4938384;28;20194;-72
2022/08/15 06:54:11;;;;;;;3.00;2.30;;;;;;;;;;4925391;28;20195;-72
2022/08/15 06:56:50;;;;;;;3.00;2.30;;;;;;;;;;4932980;29;20196;-71
2022/08/15 06:59:22;;;;;;;2.90;2.60;;;;;;;;;;4924113;29;20210;-72
2022/08/15 07:01:58;;;;;;;3.20;2.30;;;;;;;;;;4931199;29;20283;-71
2022/08/15 07:04:38;;;;;;;3.03;2.70;;;;;;;;;;4935742;28;20184;-71
2022/08/15 07:07:21;;;;;;;2.90;2.40;;;;;;;;;;4928471;29;20276;-72
2022/08/15 07:09:50;;;;;;;3.97;2.30;;;;;;;;;;4951697;28;20193;-71
2022/08/15 07:12:35;;;;;;;3.60;2.40;;;;;;;;;;4928870;28;20206;-72
2022/08/15 07:15:11;;;;;;;2.20;2.03;;;;;;;;;;4931940;29;20232;-72
2022/08/15 07:17:39;;;;;;;2.77;2.33;;;;;;;;;;4948188;28;20185;-71
2022/08/15 07:20:06;;;;;;;1.83;1.73;;;;;;;;;;4929908;29;20213;-72
2022/08/15 07:22:32;;;;;;;3.60;2.03;;;;;;;;;;4926685;28;20183;-72
2022/08/15 07:24:57;;;;;;;11.07;3.77;;;;;;;;;;4928271;29;20416;-72
2022/08/15 07:27:30;;;;;;;2.20;2.00;;;;;;;;;;4924237;28;20185;-71
2022/08/15 07:29:58;;;;;;;2.20;2.00;;;;;;;;;;4946728;28;20183;-72
2022/08/15 07:32:28;;;;;;;2.00;1.90;;;;;;;;;;4941691;28;20200;-71
2022/08/15 07:34:56;;;;;;;2.03;1.93;;;;;;;;;;4953604;28;20260;-72
2022/08/15 07:37:22;;;;;;;2.47;2.00;;;;;;;;;;4924845;29;20217;-72
2022/08/15 07:39:56;;;;;;;2.20;2.00;;;;;;;;;;4932088;28;20234;-72
2022/08/15 07:42:22;;;;;;;2.57;1.90;;;;;;;;;;4950168;28;20188;-72
2022/08/15 07:44:52;;;;;;;2.30;2.10;;;;;;;;;;4927320;29;20182;-72
2022/08/15 07:47:24;;;;;;;1.90;1.80;;;;;;;;;;4926026;28;20193;-71
2022/08/15 07:50:02;;;;;;;1.83;1.73;;;;;;;;;;4940584;28;20191;-72
2022/08/15 07:52:27;;;;;;;2.43;1.97;;;;;;;;;;4930413;29;20185;-72
2022/08/15 07:54:57;;;;;;;2.87;1.90;;;;;;;;;;4924580;29;20190;-71
2022/08/15 07:57:27;;;;;;;1.87;1.77;;;;;;;;;;4944993;28;20290;-72
2022/08/15 08:00:08;;;;;;;1.90;1.80;;;;;;;;;;4929009;29;20236;-72
2022/08/15 08:02:44;;;;;;;1.87;1.77;;;;;;;;;;4922248;28;20196;-72
2022/08/15 08:05:10;;;;;;;1.90;1.70;;;;;;;;;;4936697;28;20243;-72
2022/08/15 08:07:38;;;;;;;1.90;1.70;;;;;;;;;;4931289;28;20183;-72
2022/08/15 08:10:03;;;;;;;2.33;1.90;;;;;;;;;;4941640;28;20217;-72
2022/08/15 08:12:42;;;;;;;1.77;1.67;;;;;;;;;;4924883;28;20210;-72
2022/08/15 08:15:10;;;;;;;2.10;1.90;;;;;;;;;;4922766;29;20183;-72
2022/08/15 08:17:43;;;;;;;2.00;1.90;;;;;;;;;;4938301;28;20183;-72
2022/08/15 08:20:32;;;;;;;1.87;1.77;;;;;;;;;;4949865;28;20254;-72
2022/08/15 08:22:57;;;;;;;2.10;1.90;;;;;;;;;;4938152;29;20183;-72
2022/08/15 08:25:26;;;;;;;2.23;2.07;;;;;;;;;;4929698;28;20190;-72
2022/08/15 08:27:51;;;;;;;2.00;1.90;;;;;;;;;;4927738;28;20182;-72
2022/08/15 08:30:29;;;;;;;1.70;1.60;;;;;;;;;;4945344;29;20207;-72
2022/08/15 08:32:55;;;;;;;2.17;1.97;;;;;;;;;;4940295;29;20181;-72
2022/08/15 08:35:24;;;;;;;2.13;2.03;;;;;;;;;;4928203;29;20216;-72
2022/08/15 08:38:01;;;;;;;2.17;2.07;;;;;;;;;;4936907;28;20187;-72
2022/08/15 08:43:54;;;;;;;2.30;2.10;;;;;;;;;;4923519;29;20205;-72
2022/08/15 08:46:25;;;;;;;1.87;1.77;;;;;;;;;;4925237;29;20323;-72
2022/08/15 08:48:55;;;;;;;1.87;1.77;;;;;;;;;;4928640;29;20194;-72
2022/08/15 08:51:39;;;;;;;2.87;1.87;;;;;;;;;;4933118;29;20197;-72
2022/08/15 08:54:27;;;;;;;2.53;2.03;;;;;;;;;;4918619;29;20181;-72
2022/08/15 08:56:54;;;;;;;2.13;2.03;;;;;;;;;;4910371;29;20205;-72
2022/08/15 08:59:23;;;;;;;2.27;2.07;;;;;;;;;;4930167;29;20213;-72
2022/08/15 09:01:56;;;;;;;2.47;2.00;;;;;;;;;;4912130;29;20192;-72
2022/08/15 09:04:24;;;;;;;2.27;2.10;;;;;;;;;;4914376;29;20186;-72
2022/08/15 09:06:49;;;;;;;2.10;2.00;;;;;;;;;;4925550;29;20220;-72
2022/08/15 09:09:32;;;;;;;2.10;1.90;;;;;;;;;;4928337;29;20526;-72
2022/08/15 09:12:02;;;;;;;2.10;1.90;;;;;;;;;;4905405;29;20186;-72
2022/08/15 09:14:30;;;;;;;2.23;2.03;;;;;;;;;;4908771;29;20208;-73
2022/08/15 09:16:57;;;;;;;2.03;1.80;;;;;;;;;;4929126;29;20194;-72
2022/08/15 09:19:44;;;;;;;2.40;2.20;;;;;;;;;;4921051;29;20202;-72
2022/08/15 09:22:10;;;;;;;3.87;2.10;;;;;;;;;;4911345;29;20275;-72
2022/08/15 09:24:35;;;;;;;2.73;1.83;;;;;;;;;;4920906;29;20320;-72
2022/08/15 09:27:00;;;;;;;2.60;2.17;;;;;;;;;;4930493;29;20176;-72
2022/08/15 09:29:31;;;;;;;2.50;2.17;;;;;;;;;;4933382;29;20193;-72
2022/08/15 09:32:10;;;;;;;2.33;2.07;;;;;;;;;;4932557;29;20187;-72
2022/08/15 09:34:38;;;;;;;2.83;2.23;;;;;;;;;;4920331;29;20280;-72
2022/08/15 09:37:24;;;;;;;2.57;2.07;;;;;;;;;;4924001;29;20278;-72
2022/08/15 09:40:01;;;;;;;2.37;1.90;;;;;;;;;;4938491;29;20234;-72
2022/08/15 09:42:40;;;;;;;6.03;2.43;;;;;;;;;;4950114;28;20178;-72
2022/08/15 09:45:40;;;;;;;2.57;2.20;;;;;;;;;;4930265;29;20266;-72
2022/08/15 09:48:26;;;;;;;3.13;2.20;;;;;;;;;;4855616;29;20187;-73
2022/08/15 09:51:02;;;;;;;3.07;2.10;;;;;;;;;;4863327;29;20191;-73
2022/08/15 09:53:53;;;;;;;2.80;2.30;;;;;;;;;;4848881;29;20206;-73
2022/08/15 09:56:21;;;;;;;2.40;2.20;;;;;;;;;;4870106;29;20192;-73
2022/08/15 09:58:54;;;;;;;2.30;1.73;;;;;;;;;;4862895;29;20334;-73
2022/08/15 10:01:26;;;;;;;2.10;1.70;;;;;;;;;;4869847;29;20242;-73
2022/08/15 10:03:56;;;;;;;2.53;1.93;;;;;;;;;;4871873;29;20277;-72
2022/08/15 10:06:23;;;;;;;3.60;2.30;;;;;;;;;;4851141;29;20187;-73
2022/08/15 10:08:54;;;;;;;2.38;2.17;;;;;;;;;;4873868;29;20370;-72
2022/08/15 10:11:40;;;;;;;3.73;2.40;;;;;;;;;;4862692;29;20207;-73
2022/08/15 10:14:07;;;;;;;2.50;2.30;;;;;;;;;;4867617;29;20214;-73
2022/08/15 10:16:39;;;;;;;2.85;2.20;;;;;;;;;;4855167;29;20287;-72
2022/08/15 10:19:04;;;;;;;3.92;2.30;;;;;;;;;;4868977;29;20217;-73
2022/08/15 10:21:32;;;;;;;3.85;2.65;;;;;;;;;;4885818;29;20204;-73
2022/08/15 10:23:57;;;;;;;2.95;2.65;;;;;;;;;;4958403;28;20188;-73
2022/08/15 10:26:29;;;;;;;3.93;2.90;;;;;;;;;;5093045;23;20241;-73
2022/08/15 10:29:09;;;;;;;3.30;3.00;;;;;;;;;;4958878;28;20215;-72
2022/08/15 10:31:41;;;;;;;4.38;2.90;;;;;;;;;;4936471;29;20409;-73
2022/08/15 10:34:15;;;;;;;3.92;2.85;;;;;;;;;;4931938;29;20209;-73
2022/08/15 10:36:40;;;;;;;3.58;2.88;;;;;;;;;;4921405;29;20250;-73
2022/08/15 10:39:06;;;;;;;2.65;2.45;;;;;;;;;;4923151;29;20206;-73
2022/08/15 10:41:50;;;;;;;2.92;2.72;;;;;;;;;;4934182;29;20177;-73
2022/08/15 10:44:20;;;;;;;3.03;2.83;;;;;;;;;;4938690;29;20182;-73
2022/08/15 10:47:04;;;;;;;3.40;2.47;;;;;;;;;;4919270;29;20178;-73
2022/08/15 10:49:35;;;;;;;4.82;3.13;;;;;;;;;;4929605;29;20202;-72
2022/08/15 10:52:01;;;;;;;3.08;2.47;;;;;;;;;;4931303;29;20213;-72
2022/08/15 10:54:26;;;;;;;2.75;2.55;;;;;;;;;;4924623;29;20178;-73
2022/08/15 10:56:56;;;;;;;3.95;2.88;;;;;;;;;;4946520;29;20186;-73
2022/08/15 10:59:22;;;;;;;3.53;3.22;;;;;;;;;;4919570;29;20234;-73
2022/08/15 11:01:51;;;;;;;2.85;2.65;;;;;;;;;;4911121;29;20171;-73
2022/08/15 11:04:26;;;;;;;2.95;2.72;;;;;;;;;;4931150;29;20292;-73
2022/08/15 11:06:52;;;;;;;3.25;2.88;;;;;;;;;;4915902;29;20228;-72
2022/08/15 11:09:19;;;;;;;3.67;3.00;;;;;;;;;;4916556;29;20198;-73
2022/08/15 11:11:52;;;;;;;4.32;3.20;;;;;;;;;;4920040;29;20182;-73
2022/08/15 11:14:19;;;;;;;3.65;2.63;;;;;;;;;;4920832;29;20182;-73
2022/08/15 11:16:46;;;;;;;7.30;2.90;;;;;;;;;;4933613;29;20189;-73
2022/08/15 11:19:20;;;;;;;3.30;3.00;;;;;;;;;;4932595;29;20240;-73
2022/08/15 11:21:51;;;;;;;2.65;2.45;;;;;;;;;;4916867;29;20245;-74
2022/08/15 11:24:25;;;;;;;3.13;2.92;;;;;;;;;;4918679;29;20186;-73
2022/08/15 11:27:05;;;;;;;2.78;2.58;;;;;;;;;;4919099;29;20241;-73
2022/08/15 11:29:30;;;;;;;2.97;2.78;;;;;;;;;;4925549;29;20182;-73
2022/08/15 11:31:57;;;;;;;3.50;2.88;;;;;;;;;;4918472;29;20193;-73
2022/08/15 11:34:25;;;;;;;2.75;2.55;;;;;;;;;;4917736;29;20194;-73
2022/08/15 11:36:51;;;;;;;3.25;2.92;;;;;;;;;;4922917;29;20240;-73
2022/08/15 11:39:18;;;;;;;2.95;2.75;;;;;;;;;;4941363;29;20205;-73
2022/08/15 11:41:47;;;;;;;2.90;2.70;;;;;;;;;;4920148;29;20210;-73
2022/08/15 11:44:13;;;;;;;3.35;2.72;;;;;;;;;;4921759;29;20189;-73
2022/08/15 11:46:38;;;;;;;2.95;2.65;;;;;;;;;;4936231;29;20182;-73
2022/08/15 11:49:06;;;;;;;3.10;2.50;;;;;;;;;;4934798;29;20186;-73
2022/08/15 11:51:36;;;;;;;3.08;2.80;;;;;;;;;;4910447;29;20179;-73
2022/08/15 11:54:03;;;;;;;4.20;3.33;;;;;;;;;;4937682;29;20432;-73
2022/08/15 11:56:47;;;;;;;4.75;3.08;;;;;;;;;;4918151;29;20188;-73
2022/08/15 11:59:24;;;;;;;3.00;2.70;;;;;;;;;;4921585;29;20214;-73
2022/08/15 12:02:08;;;;;;;2.92;2.72;;;;;;;;;;4933558;29;20178;-73
2022/08/15 12:04:36;;;;;;;3.10;2.70;;;;;;;;;;4920257;29;20182;-73
2022/08/15 12:07:08;;;;;;;2.85;2.65;;;;;;;;;;4925762;29;20197;-73
2022/08/15 12:09:34;;;;;;;2.90;2.70;;;;;;;;;;4917581;29;20177;-73
2022/08/15 12:12:00;;;;;;;4.78;3.10;;;;;;;;;;4922013;29;20189;-73
2022/08/15 12:14:27;;;;;;;3.47;3.22;;;;;;;;;;4937294;29;20490;-73
2022/08/15 12:16:59;;;;;;;4.18;2.65;;;;;;;;;;4917984;29;20182;-73
2022/08/15 12:19:37;;;;;;;3.13;2.83;;;;;;;;;;4922239;29;20269;-73
2022/08/15 12:22:13;;;;;;;3.17;2.88;;;;;;;;;;4917272;29;20219;-73
2022/08/15 12:24:38;;;;;;;4.45;3.78;;;;;;;;;;4924091;29;20182;-73
2022/08/15 12:27:06;;;;;;;3.22;3.00;;;;;;;;;;4924944;29;20226;-73
2022/08/15 12:29:32;;;;;;;6.85;3.10;;;;;;;;;;4918771;29;20281;-73
2022/08/15 12:31:59;;;;;;;3.35;2.75;;;;;;;;;;4927977;29;20213;-73
2022/08/15 12:34:31;;;;;;;6.55;2.78;;;;;;;;;;4937079;29;20323;-72
2022/08/15 12:37:00;;;;;;;3.00;2.80;;;;;;;;;;4918362;29;20276;-73
2022/08/15 12:39:25;;;;;;;3.40;2.70;;;;;;;;;;4921068;29;20201;-73
2022/08/15 12:41:51;;;;;;;3.30;3.00;;;;;;;;;;4917023;29;20192;-73
2022/08/15 12:44:25;;;;;;;4.00;3.20;;;;;;;;;;4918974;29;20176;-73
2022/08/15 12:46:51;;;;;;;3.25;2.92;;;;;;;;;;4915884;29;20236;-74
2022/08/15 12:49:17;;;;;;;3.53;2.70;;;;;;;;;;4915428;29;20197;-73
2022/08/15 12:51:42;;;;;;;3.40;3.05;;;;;;;;;;4924315;29;20185;-73
2022/08/15 12:54:07;;;;;;;4.40;3.25;;;;;;;;;;4913675;29;20178;-74
2022/08/15 12:56:33;;;;;;;4.05;2.90;;;;;;;;;;4915297;29;20182;-73
2022/08/15 12:58:58;;;;;;;14.13;13.02;;;;;;;;;;4910157;29;20211;-73
2022/08/15 13:01:24;;;;;;;3.33;3.03;;;;;;;;;;4916117;29;20217;-73
2022/08/15 13:03:49;;;;;;;3.38;2.65;;;;;;;;;;4911408;29;20193;-73
2022/08/15 13:06:28;;;;;;;3.45;3.17;;;;;;;;;;4920143;29;20178;-73
2022/08/15 13:08:54;;;;;;;3.22;2.97;;;;;;;;;;4916528;29;20177;-73
2022/08/15 13:11:20;;;;;;;2.97;2.78;;;;;;;;;;4936242;29;20204;-73
2022/08/15 13:13:45;;;;;;;4.45;3.10;;;;;;;;;;4934268;29;20194;-73
2022/08/15 13:16:10;;;;;;;3.85;3.40;;;;;;;;;;4933600;29;20206;-73
2022/08/15 13:18:37;;;;;;;5.00;3.67;;;;;;;;;;4919420;29;20197;-73
2022/08/15 13:23:51;;;;;;;3.92;3.53;;;;;;;;;;4935188;29;20325;-73
2022/08/15 13:26:16;;;;;;;3.25;2.95;;;;;;;;;;4913487;29;20229;-73
2022/08/15 13:28:46;;;;;;;4.90;3.00;;;;;;;;;;4929697;29;20182;-73
2022/08/15 13:31:13;;;;;;;5.38;3.65;;;;;;;;;;4928045;29;20193;-73
2022/08/15 13:33:38;;;;;;;5.72;3.40;;;;;;;;;;4916967;29;20245;-73
2022/08/15 13:36:05;;;;;;;4.07;3.53;;;;;;;;;;4916989;29;20186;-73
2022/08/15 13:38:31;;;;;;;5.13;3.38;;;;;;;;;;4934070;29;20225;-73
2022/08/15 13:40:56;;;;;;;4.18;3.47;;;;;;;;;;4915409;29;20218;-73
2022/08/15 13:43:23;;;;;;;5.03;3.38;;;;;;;;;;4935884;29;20183;-73
2022/08/15 13:45:49;;;;;;;3.70;3.30;;;;;;;;;;4922744;29;20178;-73
2022/08/15 13:48:25;;;;;;;3.80;3.40;;;;;;;;;;4914396;29;20174;-73
2022/08/15 13:50:51;;;;;;;4.22;3.90;;;;;;;;;;4910551;29;20181;-73
2022/08/15 13:53:19;;;;;;;5.18;4.28;;;;;;;;;;4913343;29;20225;-73
2022/08/15 13:55:44;;;;;;;3.53;3.20;;;;;;;;;;4919659;29;20190;-73
2022/08/15 13:58:09;;;;;;;3.42;3.13;;;;;;;;;;4915571;29;20186;-73
2022/08/15 14:00:35;;;;;;;4.70;3.70;;;;;;;;;;4925214;29;20190;-73
2022/08/15 14:03:01;;;;;;;5.85;3.30;;;;;;;;;;4936534;29;20204;-73
2022/08/15 14:05:26;;;;;;;3.95;3.55;;;;;;;;;;4921153;29;20178;-73
2022/08/15 14:07:51;;;;;;;3.58;3.10;;;;;;;;;;4927540;29;20174;-73
2022/08/15 14:10:18;;;;;;;4.28;3.28;;;;;;;;;;4931628;28;20246;-74
2022/08/15 14:12:43;;;;;;;3.05;2.75;;;;;;;;;;4936061;29;20182;-73
2022/08/15 14:15:13;;;;;;;3.97;3.35;;;;;;;;;;4922916;29;20190;-73
2022/08/15 14:17:39;;;;;;;3.20;2.90;;;;;;;;;;4926459;29;20193;-73
2022/08/15 14:20:09;;;;;;;3.88;3.10;;;;;;;;;;4923185;29;20206;-73
2022/08/15 14:22:34;;;;;;;3.15;2.83;;;;;;;;;;4936254;29;20178;-73
2022/08/15 14:25:00;;;;;;;15.55;6.03;;;;;;;;;;4915979;29;20175;-75
2022/08/15 14:27:26;;;;;;;12.50;4.45;;;;;;;;;;4939664;29;20234;-75
2022/08/15 14:29:54;;;;;;;8.02;4.30;;;;;;;;;;4914946;29;20189;-76
2022/08/15 14:32:21;;;;;;;5.30;2.97;;;;;;;;;;4927232;29;20715;-75
2022/08/15 14:34:47;;;;;;;6.50;3.33;;;;;;;;;;4917857;29;20253;-76
2022/08/15 14:37:15;;;;;;;5.53;3.07;;;;;;;;;;4925396;29;20263;-77
2022/08/15 14:39:40;;;;;;;6.40;3.63;;;;;;;;;;4919642;29;20212;-75
2022/08/15 14:42:06;;;;;;;7.70;3.43;;;;;;;;;;4920423;29;20184;-75
2022/08/15 14:44:32;;;;;;;4.90;2.57;;;;;;;;;;4940069;29;20194;-74
2022/08/15 14:46:57;;;;;;;5.80;3.30;;;;;;;;;;4935076;29;20177;-73
2022/08/15 14:49:22;;;;;;;4.93;3.33;;;;;;;;;;4938860;29;20172;-73
2022/08/15 14:51:48;;;;;;;4.73;2.70;;;;;;;;;;4922095;29;20179;-72
2022/08/15 14:54:16;;;;;;;6.70;3.00;;;;;;;;;;4919896;29;20278;-72
2022/08/15 14:56:43;;;;;;;6.73;3.10;;;;;;;;;;4939219;29;20181;-72
2022/08/15 14:59:08;;;;;;;4.50;2.80;;;;;;;;;;4936732;29;20197;-72
2022/08/15 15:01:34;;;;;;;6.27;2.67;;;;;;;;;;4921814;29;20184;-72
2022/08/15 15:04:01;;;;;;;2.97;2.63;;;;;;;;;;4918257;29;20191;-71